createdAt,value
2017-10-01T00:00:34.779Z,12.2
2017-10-01T00:01:43.609Z,12.16
2017-10-01T00:02:52.441Z,12.19
2017-10-01T00:04:01.271Z,12.04
2017-10-01T00:05:10.104Z,12.17
2017-10-01T00:06:18.938Z,12.14
2017-10-01T00:07:27.773Z,12.1
2017-10-01T00:08:36.756Z,12.1
2017-10-01T00:09:45.590Z,12.27
2017-10-01T00:10:54.419Z,12.21
2017-10-01T00:12:03.249Z,12.16
2017-10-01T00:13:12.079Z,12.17
2017-10-01T00:14:21.013Z,12.2
2017-10-01T00:15:29.846Z,12.17
2017-10-01T00:16:38.679Z,12.24
2017-10-01T00:17:47.512Z,12.14
2017-10-01T00:18:56.344Z,12.19
2017-10-01T00:20:05.229Z,12.14
2017-10-01T00:21:14.062Z,12.16
2017-10-01T00:22:22.893Z,12.21
2017-10-01T00:23:31.725Z,12.2
2017-10-01T00:24:40.887Z,12.1
2017-10-01T00:25:49.722Z,12.17
2017-10-01T00:26:58.555Z,12.19
2017-10-01T00:28:07.720Z,12.17
2017-10-01T00:29:16.551Z,12.14
2017-10-01T00:30:25.381Z,12.1
2017-10-01T00:31:34.514Z,12.27
2017-10-01T00:32:43.345Z,12.13
2017-10-01T00:33:52.179Z,12.17
2017-10-01T00:35:01.015Z,12.13
2017-10-01T00:36:09.846Z,12.16
2017-10-01T00:37:18.829Z,12.05
2017-10-01T00:38:27.992Z,12.27
2017-10-01T00:39:36.824Z,12.2
2017-10-01T00:40:45.656Z,12.24
2017-10-01T00:41:54.486Z,12.45
2017-10-01T00:43:03.619Z,12.32
2017-10-01T00:44:12.450Z,12.13
2017-10-01T00:45:21.282Z,12.21
2017-10-01T00:46:30.115Z,12.21
2017-10-01T00:47:38.953Z,12.17
2017-10-01T00:48:48.266Z,12.21
2017-10-01T00:49:57.097Z,12.14
2017-10-01T00:51:05.928Z,12.13
2017-10-01T00:52:14.760Z,12.13
2017-10-01T00:53:23.593Z,12.2
2017-10-01T00:54:32.576Z,12.19
2017-10-01T00:55:41.408Z,12.2
2017-10-01T00:56:50.242Z,12.09
2017-10-01T00:57:59.075Z,12.09
2017-10-01T00:59:07.906Z,12.29
2017-10-01T01:00:16.889Z,12.13
2017-10-01T01:01:25.719Z,12.1
2017-10-01T01:02:34.560Z,12.14
2017-10-01T01:03:43.391Z,12.1
2017-10-01T01:04:52.225Z,11.94
2017-10-01T01:06:01.103Z,12.04
2017-10-01T01:07:09.935Z,12.04
2017-10-01T01:08:18.769Z,12.09
2017-10-01T01:09:27.934Z,11.94
2017-10-01T01:10:36.767Z,11.88
2017-10-01T01:11:45.747Z,11.9
2017-10-01T01:12:54.577Z,11.91
2017-10-01T01:14:03.410Z,11.88
2017-10-01T01:15:12.242Z,11.73
2017-10-01T01:16:21.074Z,11.78
2017-10-01T01:17:30.059Z,11.78
2017-10-01T01:18:38.891Z,11.69
2017-10-01T01:19:47.726Z,11.73
2017-10-01T01:20:56.556Z,11.64
2017-10-01T01:22:05.405Z,11.86
2017-10-01T01:23:14.266Z,11.65
2017-10-01T01:24:23.097Z,11.58
2017-10-01T01:25:31.928Z,11.6
2017-10-01T01:26:40.761Z,11.65
2017-10-01T01:27:49.593Z,11.62
2017-10-01T01:28:58.522Z,11.65
2017-10-01T01:30:07.353Z,11.58
2017-10-01T01:31:16.186Z,11.6
2017-10-01T01:32:25.355Z,11.61
2017-10-01T01:33:34.187Z,11.51
2017-10-01T01:34:43.020Z,11.52
2017-10-01T01:35:51.852Z,11.46
2017-10-01T01:37:00.683Z,11.42
2017-10-01T01:38:09.511Z,11.4
2017-10-01T01:39:18.341Z,11.37
2017-10-01T01:40:27.273Z,11.37
2017-10-01T01:41:36.106Z,11.32
2017-10-01T01:42:44.939Z,11.28
2017-10-01T01:43:53.772Z,11.28
2017-10-01T01:45:02.607Z,11.35
2017-10-01T01:46:11.540Z,11.22
2017-10-01T01:47:20.371Z,11.24
2017-10-01T01:48:29.202Z,11.33
2017-10-01T01:49:38.037Z,11.25
2017-10-01T01:50:46.867Z,11.29
2017-10-01T01:51:55.699Z,11.22
2017-10-01T01:53:04.530Z,11.24
2017-10-01T01:54:13.364Z,11.25
2017-10-01T01:55:22.195Z,11.25
2017-10-01T01:56:31.028Z,11.19
2017-10-01T01:57:39.959Z,11.07
2017-10-01T01:58:48.789Z,11.11
2017-10-01T01:59:57.620Z,11.14
2017-10-01T02:01:06.451Z,11.21
2017-10-01T02:02:15.282Z,11.02
2017-10-01T02:03:24.164Z,11.15
2017-10-01T02:04:32.995Z,11.04
2017-10-01T02:05:41.826Z,11.09
2017-10-01T02:06:50.656Z,11.09
2017-10-01T02:07:59.490Z,11.09
2017-10-01T02:09:08.470Z,11.07
2017-10-01T02:10:17.300Z,11.04
2017-10-01T02:11:26.133Z,11.04
2017-10-01T02:12:34.966Z,11.04
2017-10-01T02:13:43.798Z,11.06
2017-10-01T02:14:52.630Z,11.06
2017-10-01T02:16:01.467Z,10.94
2017-10-01T02:17:10.627Z,11.04
2017-10-01T02:18:19.458Z,11.09
2017-10-01T02:19:28.291Z,11.07
2017-10-01T02:20:37.124Z,11.03
2017-10-01T02:21:46.284Z,11.06
2017-10-01T02:22:55.116Z,11.06
2017-10-01T02:24:03.948Z,11.06
2017-10-01T02:25:12.779Z,10.99
2017-10-01T02:26:21.908Z,11.03
2017-10-01T02:27:31.075Z,10.97
2017-10-01T02:28:39.905Z,10.96
2017-10-01T02:29:48.736Z,10.94
2017-10-01T02:30:57.567Z,10.91
2017-10-01T02:32:06.779Z,10.91
2017-10-01T02:33:15.611Z,10.91
2017-10-01T02:34:24.442Z,10.88
2017-10-01T02:35:33.276Z,10.85
2017-10-01T02:36:42.107Z,10.85
2017-10-01T02:37:51.238Z,10.85
2017-10-01T02:39:00.067Z,10.88
2017-10-01T02:40:08.898Z,10.81
2017-10-01T02:41:17.729Z,10.86
2017-10-01T02:42:26.559Z,10.91
2017-10-01T02:43:35.491Z,10.81
2017-10-01T02:44:44.325Z,10.81
2017-10-01T02:45:53.156Z,10.84
2017-10-01T02:47:01.988Z,10.84
2017-10-01T02:48:10.817Z,10.85
2017-10-01T02:49:19.799Z,10.76
2017-10-01T02:50:28.974Z,10.84
2017-10-01T02:51:37.803Z,10.79
2017-10-01T02:52:46.969Z,10.81
2017-10-01T02:53:56.133Z,10.76
2017-10-01T02:55:05.396Z,10.78
2017-10-01T02:56:14.228Z,10.84
2017-10-01T02:57:23.059Z,10.82
2017-10-01T02:58:31.888Z,10.78
2017-10-01T02:59:40.721Z,10.76
2017-10-01T03:00:49.647Z,10.71
2017-10-01T03:01:58.479Z,10.74
2017-10-01T03:03:07.312Z,10.71
2017-10-01T03:04:16.144Z,10.64
2017-10-01T03:05:24.975Z,10.61
2017-10-01T03:06:33.806Z,10.68
2017-10-01T03:07:42.636Z,10.7
2017-10-01T03:08:51.468Z,10.61
2017-10-01T03:10:00.297Z,10.67
2017-10-01T03:11:09.129Z,10.59
2017-10-01T03:12:18.113Z,10.66
2017-10-01T03:13:26.947Z,10.61
2017-10-01T03:14:35.779Z,10.59
2017-10-01T03:15:44.612Z,10.56
2017-10-01T03:16:53.444Z,10.64
2017-10-01T03:18:02.430Z,10.67
2017-10-01T03:19:11.255Z,10.59
2017-10-01T03:20:20.089Z,10.63
2017-10-01T03:21:28.918Z,10.52
2017-10-01T03:22:37.750Z,10.66
2017-10-01T03:23:46.582Z,10.61
2017-10-01T03:24:55.415Z,10.66
2017-10-01T03:26:04.576Z,10.56
2017-10-01T03:27:13.406Z,10.59
2017-10-01T03:28:22.240Z,10.45
2017-10-01T03:29:31.550Z,10.59
2017-10-01T03:30:40.379Z,10.51
2017-10-01T03:31:49.551Z,10.51
2017-10-01T03:32:58.711Z,10.52
2017-10-01T03:34:07.541Z,10.59
2017-10-01T03:35:16.520Z,10.52
2017-10-01T03:36:25.350Z,10.48
2017-10-01T03:37:34.181Z,10.44
2017-10-01T03:38:43.342Z,10.4
2017-10-01T03:39:52.173Z,10.44
2017-10-01T03:41:01.006Z,10.47
2017-10-01T03:42:09.837Z,10.42
2017-10-01T03:43:18.669Z,10.44
2017-10-01T03:44:27.501Z,10.45
2017-10-01T03:45:36.330Z,10.42
2017-10-01T03:46:45.562Z,10.44
2017-10-01T03:47:54.417Z,10.44
2017-10-01T03:49:03.226Z,10.41
2017-10-01T03:50:12.387Z,10.38
2017-10-01T03:51:21.220Z,10.42
2017-10-01T03:52:30.151Z,10.44
2017-10-01T03:53:38.980Z,10.34
2017-10-01T03:54:47.808Z,10.41
2017-10-01T03:55:56.640Z,10.38
2017-10-01T03:57:05.470Z,10.4
2017-10-01T03:58:14.449Z,10.4
2017-10-01T03:59:23.279Z,10.22
2017-10-01T04:00:32.111Z,10.22
2017-10-01T04:01:40.942Z,10.3
2017-10-01T04:02:49.775Z,10.36
2017-10-01T04:03:58.907Z,10.27
2017-10-01T04:05:07.736Z,10.29
2017-10-01T04:06:16.567Z,10.25
2017-10-01T04:07:25.397Z,10.2
2017-10-01T04:08:34.231Z,10.26
2017-10-01T04:09:43.545Z,10.2
2017-10-01T04:10:52.375Z,10.25
2017-10-01T04:12:01.207Z,10.18
2017-10-01T04:13:10.040Z,10.18
2017-10-01T04:14:18.873Z,10.14
2017-10-01T04:15:28.333Z,10.15
2017-10-01T04:16:37.164Z,10.12
2017-10-01T04:17:45.996Z,10.15
2017-10-01T04:18:54.829Z,10.25
2017-10-01T04:20:03.658Z,10.17
2017-10-01T04:21:13.220Z,10.2
2017-10-01T04:22:22.051Z,10.12
2017-10-01T04:23:30.884Z,10.11
2017-10-01T04:24:39.714Z,10.08
2017-10-01T04:25:48.543Z,10.11
2017-10-01T04:26:57.377Z,10.05
2017-10-01T04:28:06.537Z,10.04
2017-10-01T04:29:15.700Z,10.02
2017-10-01T04:30:24.531Z,10.05
2017-10-01T04:31:33.361Z,10.09
2017-10-01T04:32:42.190Z,10.08
2017-10-01T04:33:51.020Z,10.02
2017-10-01T04:34:59.851Z,10.05
2017-10-01T04:36:08.682Z,10.04
2017-10-01T04:37:17.513Z,10.04
2017-10-01T04:38:26.343Z,9.96
2017-10-01T04:39:35.174Z,9.94
2017-10-01T04:40:44.003Z,9.94
2017-10-01T04:41:52.834Z,9.84
2017-10-01T04:43:01.665Z,9.86
2017-10-01T04:44:10.830Z,9.89
2017-10-01T04:45:19.659Z,9.81
2017-10-01T04:46:28.489Z,9.79
2017-10-01T04:47:37.322Z,9.81
2017-10-01T04:48:46.153Z,9.87
2017-10-01T04:49:55.134Z,9.84
2017-10-01T04:51:03.963Z,9.79
2017-10-01T04:52:12.796Z,9.93
2017-10-01T04:53:21.623Z,9.81
2017-10-01T04:54:30.453Z,9.79
2017-10-01T04:55:39.285Z,9.89
2017-10-01T04:56:48.116Z,9.78
2017-10-01T04:57:56.944Z,9.75
2017-10-01T04:59:06.109Z,9.79
2017-10-01T05:00:14.937Z,9.76
2017-10-01T05:01:24.069Z,9.76
2017-10-01T05:02:32.901Z,9.74
2017-10-01T05:03:41.733Z,9.76
2017-10-01T05:04:50.563Z,9.78
2017-10-01T05:05:59.394Z,9.69
2017-10-01T05:07:08.325Z,9.78
2017-10-01T05:08:17.157Z,9.75
2017-10-01T05:09:25.990Z,9.78
2017-10-01T05:10:34.823Z,9.76
2017-10-01T05:11:43.655Z,9.78
2017-10-01T05:12:52.538Z,9.71
2017-10-01T05:14:01.369Z,9.75
2017-10-01T05:15:10.201Z,9.69
2017-10-01T05:16:19.032Z,9.64
2017-10-01T05:17:28.196Z,9.64
2017-10-01T05:18:37.037Z,9.69
2017-10-01T05:19:46.196Z,9.68
2017-10-01T05:20:55.028Z,9.61
2017-10-01T05:22:03.948Z,9.65
2017-10-01T05:23:12.825Z,9.64
2017-10-01T05:24:21.656Z,9.66
2017-10-01T05:25:30.489Z,9.71
2017-10-01T05:26:39.323Z,9.66
2017-10-01T05:27:48.483Z,9.69
2017-10-01T05:28:57.315Z,9.61
2017-10-01T05:30:06.149Z,9.68
2017-10-01T05:31:14.981Z,9.65
2017-10-01T05:32:23.814Z,9.66
2017-10-01T05:33:32.649Z,9.66
2017-10-01T05:34:41.479Z,9.65
2017-10-01T05:35:50.307Z,9.68
2017-10-01T05:36:59.138Z,9.66
2017-10-01T05:38:07.968Z,9.68
2017-10-01T05:39:16.799Z,9.66
2017-10-01T05:40:25.632Z,9.69
2017-10-01T05:41:34.797Z,9.68
2017-10-01T05:42:43.634Z,9.65
2017-10-01T05:43:52.705Z,9.65
2017-10-01T05:45:01.537Z,9.68
2017-10-01T05:46:10.368Z,9.64
2017-10-01T05:47:19.198Z,9.69
2017-10-01T05:48:28.028Z,9.66
2017-10-01T05:49:37.159Z,9.75
2017-10-01T05:50:45.991Z,9.79
2017-10-01T05:51:54.823Z,9.76
2017-10-01T05:53:03.655Z,9.76
2017-10-01T05:54:12.483Z,9.83
2017-10-01T05:55:21.315Z,9.78
2017-10-01T05:56:30.148Z,9.81
2017-10-01T05:57:38.982Z,9.79
2017-10-01T05:58:47.813Z,9.79
2017-10-01T05:59:56.977Z,9.79
2017-10-01T06:01:05.859Z,9.78
2017-10-01T06:02:14.690Z,9.78
2017-10-01T06:03:23.858Z,9.78
2017-10-01T06:04:32.689Z,9.76
2017-10-01T06:05:41.519Z,9.84
2017-10-01T06:06:50.400Z,9.79
2017-10-01T06:07:59.231Z,9.81
2017-10-01T06:09:08.064Z,9.75
2017-10-01T06:10:16.895Z,9.76
2017-10-01T06:11:25.724Z,9.75
2017-10-01T06:12:34.855Z,9.76
2017-10-01T06:13:44.013Z,9.78
2017-10-01T06:14:52.845Z,9.76
2017-10-01T06:16:01.676Z,9.79
2017-10-01T06:17:10.507Z,9.9
2017-10-01T06:18:19.340Z,9.75
2017-10-01T06:19:28.172Z,9.9
2017-10-01T06:20:37.003Z,9.84
2017-10-01T06:21:45.833Z,9.86
2017-10-01T06:22:54.662Z,9.76
2017-10-01T06:24:03.647Z,9.81
2017-10-01T06:25:12.481Z,9.79
2017-10-01T06:26:21.312Z,9.89
2017-10-01T06:27:30.145Z,9.9
2017-10-01T06:28:38.977Z,9.91
2017-10-01T06:29:47.958Z,9.94
2017-10-01T06:30:56.786Z,9.94
2017-10-01T06:32:05.623Z,9.94
2017-10-01T06:33:14.784Z,9.96
2017-10-01T06:34:23.625Z,9.99
2017-10-01T06:35:32.609Z,9.94
2017-10-01T06:36:41.889Z,9.97
2017-10-01T06:37:54.009Z,10.01
2017-10-01T06:39:05.597Z,9.91
2017-10-01T06:40:15.940Z,10.07
2017-10-01T06:41:26.786Z,10.02
2017-10-01T06:42:35.661Z,10.08
2017-10-01T06:43:44.563Z,10.01
2017-10-01T06:44:53.738Z,10.08
2017-10-01T06:46:02.618Z,10.05
2017-10-01T06:47:11.490Z,10.04
2017-10-01T06:48:20.652Z,10.08
2017-10-01T06:49:29.488Z,10.09
2017-10-01T06:50:38.322Z,10.12
2017-10-01T06:51:47.158Z,10.17
2017-10-01T06:52:56.144Z,10.07
2017-10-01T06:54:05.016Z,10.17
2017-10-01T06:55:13.851Z,10.2
2017-10-01T06:56:22.681Z,10.2
2017-10-01T06:57:31.514Z,10.23
2017-10-01T06:58:40.446Z,10.29
2017-10-01T06:59:49.278Z,10.29
2017-10-01T07:00:58.116Z,10.22
2017-10-01T07:02:06.947Z,10.33
2017-10-01T07:03:15.783Z,10.25
2017-10-01T07:04:24.871Z,10.3
2017-10-01T07:05:33.703Z,10.33
2017-10-01T07:06:42.537Z,10.33
2017-10-01T07:07:51.370Z,10.33
2017-10-01T07:09:00.203Z,10.34
2017-10-01T07:10:09.091Z,10.36
2017-10-01T07:11:18.268Z,10.36
2017-10-01T07:12:27.096Z,10.4
2017-10-01T07:13:35.930Z,10.42
2017-10-01T07:14:44.762Z,10.48
2017-10-01T07:15:53.896Z,10.52
2017-10-01T07:17:02.732Z,10.55
2017-10-01T07:18:11.563Z,10.51
2017-10-01T07:19:20.396Z,10.52
2017-10-01T07:20:29.231Z,10.55
2017-10-01T07:21:38.169Z,10.64
2017-10-01T07:22:47.003Z,10.56
2017-10-01T07:23:55.834Z,10.6
2017-10-01T07:25:05.004Z,10.56
2017-10-01T07:26:13.831Z,10.66
2017-10-01T07:27:22.815Z,10.59
2017-10-01T07:28:31.647Z,10.74
2017-10-01T07:29:40.483Z,10.78
2017-10-01T07:30:49.315Z,10.85
2017-10-01T07:31:58.150Z,10.85
2017-10-01T07:33:07.032Z,10.79
2017-10-01T07:34:15.863Z,10.81
2017-10-01T07:35:24.696Z,10.78
2017-10-01T07:36:33.531Z,10.85
2017-10-01T07:37:42.704Z,10.84
2017-10-01T07:38:51.837Z,10.91
2017-10-01T07:40:00.670Z,10.86
2017-10-01T07:41:09.503Z,10.88
2017-10-01T07:42:18.334Z,11
2017-10-01T07:43:27.170Z,11.03
2017-10-01T07:44:36.649Z,11
2017-10-01T07:45:45.704Z,11.02
2017-10-01T07:46:54.538Z,11.02
2017-10-01T07:48:03.369Z,11.03
2017-10-01T07:49:12.201Z,11.03
2017-10-01T07:50:21.182Z,11.07
2017-10-01T07:51:30.016Z,11.1
2017-10-01T07:52:38.849Z,11.15
2017-10-01T07:53:47.717Z,11.09
2017-10-01T07:54:56.550Z,11.24
2017-10-01T07:56:05.442Z,11.25
2017-10-01T07:57:14.605Z,11.22
2017-10-01T07:58:23.438Z,11.25
2017-10-01T07:59:32.271Z,11.33
2017-10-01T08:00:41.105Z,11.36
2017-10-01T08:01:50.094Z,11.33
2017-10-01T08:02:58.934Z,11.33
2017-10-01T08:04:07.762Z,11.44
2017-10-01T08:05:16.649Z,11.43
2017-10-01T08:06:25.480Z,11.44
2017-10-01T08:07:34.364Z,11.43
2017-10-01T08:08:43.198Z,11.47
2017-10-01T08:09:52.031Z,11.52
2017-10-01T08:11:00.863Z,11.52
2017-10-01T08:12:09.696Z,11.58
2017-10-01T08:13:18.680Z,11.6
2017-10-01T08:14:27.513Z,11.54
2017-10-01T08:15:36.349Z,11.62
2017-10-01T08:16:45.183Z,11.67
2017-10-01T08:17:54.018Z,11.61
2017-10-01T08:19:03.153Z,11.72
2017-10-01T08:20:12.316Z,11.76
2017-10-01T08:21:21.147Z,11.8
2017-10-01T08:22:29.981Z,11.82
2017-10-01T08:23:38.813Z,11.88
2017-10-01T08:24:47.798Z,11.86
2017-10-01T08:25:56.632Z,11.94
2017-10-01T08:27:05.466Z,11.88
2017-10-01T08:28:14.300Z,11.96
2017-10-01T08:29:23.468Z,12.05
2017-10-01T08:30:32.451Z,11.98
2017-10-01T08:31:41.282Z,12.04
2017-10-01T08:32:50.124Z,12.16
2017-10-01T08:33:58.951Z,12.16
2017-10-01T08:35:07.785Z,12.2
2017-10-01T08:36:16.718Z,12.13
2017-10-01T08:37:25.552Z,12.16
2017-10-01T08:38:34.385Z,12.21
2017-10-01T08:39:43.217Z,12.17
2017-10-01T08:40:52.048Z,12.19
2017-10-01T08:42:01.032Z,12.29
2017-10-01T08:43:09.884Z,12.29
2017-10-01T08:44:18.717Z,12.34
2017-10-01T08:45:27.550Z,12.37
2017-10-01T08:46:36.383Z,12.46
2017-10-01T08:47:45.419Z,12.35
2017-10-01T08:48:54.252Z,12.45
2017-10-01T08:50:03.086Z,12.46
2017-10-01T08:51:11.921Z,12.39
2017-10-01T08:52:20.761Z,12.41
2017-10-01T08:53:29.643Z,12.42
2017-10-01T08:54:38.477Z,12.52
2017-10-01T08:55:47.314Z,12.46
2017-10-01T08:56:56.172Z,12.54
2017-10-01T08:58:04.978Z,12.52
2017-10-01T08:59:13.967Z,12.56
2017-10-01T09:00:22.799Z,12.5
2017-10-01T09:01:31.637Z,12.54
2017-10-01T09:02:40.472Z,12.65
2017-10-01T09:03:49.305Z,12.7
2017-10-01T09:04:58.389Z,12.67
2017-10-01T09:06:07.226Z,12.67
2017-10-01T09:07:16.061Z,12.77
2017-10-01T09:08:24.897Z,12.79
2017-10-01T09:09:33.730Z,12.77
2017-10-01T09:10:42.715Z,12.87
2017-10-01T09:11:51.888Z,12.9
2017-10-01T09:13:00.724Z,12.87
2017-10-01T09:14:09.559Z,12.95
2017-10-01T09:15:18.393Z,12.85
2017-10-01T09:16:27.232Z,12.85
2017-10-01T09:17:36.065Z,12.83
2017-10-01T09:18:44.901Z,12.79
2017-10-01T09:19:53.738Z,12.9
2017-10-01T09:21:02.762Z,12.86
2017-10-01T09:22:11.817Z,12.87
2017-10-01T09:23:20.649Z,12.95
2017-10-01T09:24:29.484Z,12.97
2017-10-01T09:25:38.318Z,12.95
2017-10-01T09:26:47.154Z,12.97
2017-10-01T09:27:56.136Z,13.03
2017-10-01T09:29:04.970Z,13.01
2017-10-01T09:30:13.805Z,13
2017-10-01T09:31:22.639Z,13.07
2017-10-01T09:32:31.471Z,13.03
2017-10-01T09:33:40.404Z,13
2017-10-01T09:34:49.239Z,12.97
2017-10-01T09:35:58.075Z,12.95
2017-10-01T09:37:06.912Z,12.93
2017-10-01T09:38:16.075Z,12.89
2017-10-01T09:39:24.911Z,13
2017-10-01T09:40:33.746Z,13.03
2017-10-01T09:41:42.580Z,13.05
2017-10-01T09:42:51.415Z,13.04
2017-10-01T09:44:00.248Z,13.03
2017-10-01T09:45:09.181Z,13.05
2017-10-01T09:46:18.018Z,13
2017-10-01T09:47:26.852Z,13.05
2017-10-01T09:48:35.689Z,13.1
2017-10-01T09:49:44.522Z,13.15
2017-10-01T09:50:53.457Z,13.25
2017-10-01T09:52:02.289Z,13.32
2017-10-01T09:53:11.123Z,13.29
2017-10-01T09:54:19.955Z,13.26
2017-10-01T09:55:28.788Z,13.3
2017-10-01T09:56:37.681Z,13.29
2017-10-01T09:57:46.517Z,13.3
2017-10-01T09:58:55.350Z,13.36
2017-10-01T10:00:04.187Z,13.29
2017-10-01T10:01:13.021Z,13.33
2017-10-01T10:02:21.905Z,13.48
2017-10-01T10:03:30.740Z,13.45
2017-10-01T10:04:39.572Z,13.41
2017-10-01T10:05:48.408Z,13.28
2017-10-01T10:06:57.244Z,13.36
2017-10-01T10:08:06.376Z,13.3
2017-10-01T10:09:15.210Z,13.49
2017-10-01T10:10:24.045Z,13.46
2017-10-01T10:11:33.217Z,13.42
2017-10-01T10:12:42.052Z,13.51
2017-10-01T10:13:51.037Z,13.49
2017-10-01T10:14:59.870Z,13.51
2017-10-01T10:16:08.703Z,13.62
2017-10-01T10:17:17.537Z,13.48
2017-10-01T10:18:26.371Z,13.54
2017-10-01T10:19:35.509Z,13.39
2017-10-01T10:20:44.345Z,13.38
2017-10-01T10:21:53.179Z,13.49
2017-10-01T10:23:02.343Z,13.59
2017-10-01T10:24:11.175Z,13.59
2017-10-01T10:25:20.210Z,13.54
2017-10-01T10:26:29.045Z,13.51
2017-10-01T10:27:37.878Z,13.54
2017-10-01T10:28:46.710Z,13.55
2017-10-01T10:29:55.542Z,13.6
2017-10-01T10:31:04.527Z,13.66
2017-10-01T10:32:13.362Z,13.71
2017-10-01T10:33:22.198Z,13.78
2017-10-01T10:34:31.032Z,13.78
2017-10-01T10:35:39.869Z,13.79
2017-10-01T10:36:49.084Z,13.85
2017-10-01T10:37:57.919Z,13.99
2017-10-01T10:39:06.755Z,13.96
2017-10-01T10:40:15.594Z,13.96
2017-10-01T10:41:24.755Z,14
2017-10-01T10:42:33.692Z,14.03
2017-10-01T10:43:42.526Z,14.09
2017-10-01T10:44:51.699Z,14.07
2017-10-01T10:46:00.534Z,14.04
2017-10-01T10:47:09.370Z,14.12
2017-10-01T10:48:18.254Z,14.24
2017-10-01T10:49:27.089Z,14.25
2017-10-01T10:50:35.922Z,14.32
2017-10-01T10:51:44.765Z,14.33
2017-10-01T10:52:53.601Z,14.42
2017-10-01T10:54:02.434Z,14.47
2017-10-01T10:55:11.268Z,14.5
2017-10-01T10:56:20.105Z,14.47
2017-10-01T10:57:28.942Z,14.57
2017-10-01T10:58:38.167Z,14.55
2017-10-01T10:59:47.025Z,14.58
2017-10-01T11:00:55.910Z,14.62
2017-10-01T11:02:04.996Z,14.57
2017-10-01T11:03:13.876Z,14.55
2017-10-01T11:04:23.369Z,14.7
2017-10-01T11:05:32.697Z,14.75
2017-10-01T11:06:41.554Z,14.7
2017-10-01T11:07:50.388Z,14.69
2017-10-01T11:08:59.224Z,14.72
2017-10-01T11:10:08.059Z,14.64
2017-10-01T11:11:17.384Z,14.77
2017-10-01T11:12:26.219Z,14.81
2017-10-01T11:13:35.055Z,14.78
2017-10-01T11:14:43.892Z,14.86
2017-10-01T11:15:52.734Z,14.98
2017-10-01T11:17:01.871Z,15.01
2017-10-01T11:18:10.715Z,15.17
2017-10-01T11:19:19.896Z,15.14
2017-10-01T11:20:28.736Z,15.13
2017-10-01T11:21:37.574Z,15.23
2017-10-01T11:22:46.708Z,15.25
2017-10-01T11:23:55.544Z,15.31
2017-10-01T11:25:04.377Z,15.23
2017-10-01T11:26:13.219Z,15.32
2017-10-01T11:27:22.058Z,15.34
2017-10-01T11:28:30.996Z,15.32
2017-10-01T11:29:39.831Z,15.41
2017-10-01T11:30:48.670Z,15.53
2017-10-01T11:31:57.504Z,15.49
2017-10-01T11:33:06.338Z,15.51
2017-10-01T11:34:15.223Z,15.51
2017-10-01T11:35:24.058Z,15.5
2017-10-01T11:36:32.893Z,15.51
2017-10-01T11:37:41.730Z,15.53
2017-10-01T11:38:50.563Z,15.51
2017-10-01T11:39:59.600Z,15.67
2017-10-01T11:41:08.436Z,15.65
2017-10-01T11:42:17.271Z,15.75
2017-10-01T11:43:26.106Z,15.8
2017-10-01T11:44:34.948Z,15.83
2017-10-01T11:45:44.161Z,15.9
2017-10-01T11:46:52.998Z,15.86
2017-10-01T11:48:01.835Z,15.94
2017-10-01T11:49:10.670Z,15.96
2017-10-01T11:50:19.507Z,16
2017-10-01T11:51:28.345Z,15.94
2017-10-01T11:52:37.186Z,16.01
2017-10-01T11:53:46.353Z,15.93
2017-10-01T11:54:55.192Z,15.96
2017-10-01T11:56:04.030Z,15.89
2017-10-01T11:57:13.124Z,15.96
2017-10-01T11:58:22.299Z,16.05
2017-10-01T11:59:31.142Z,16.2
2017-10-01T12:00:39.984Z,16.28
2017-10-01T12:01:48.824Z,16.25
2017-10-01T12:02:57.725Z,16.2
2017-10-01T12:04:06.563Z,16.23
2017-10-01T12:05:15.400Z,16.31
2017-10-01T12:06:24.439Z,16.31
2017-10-01T12:07:33.276Z,16.42
2017-10-01T12:08:42.364Z,16.53
2017-10-01T12:09:51.201Z,16.76
2017-10-01T12:11:00.037Z,16.83
2017-10-01T12:12:08.874Z,16.88
2017-10-01T12:13:17.713Z,16.83
2017-10-01T12:14:26.601Z,16.82
2017-10-01T12:15:35.437Z,16.78
2017-10-01T12:16:44.276Z,16.82
2017-10-01T12:17:53.116Z,16.7
2017-10-01T12:19:01.954Z,16.75
2017-10-01T12:20:11.092Z,16.75
2017-10-01T12:21:19.928Z,16.71
2017-10-01T12:22:28.769Z,16.76
2017-10-01T12:23:37.607Z,16.85
2017-10-01T12:24:46.446Z,16.81
2017-10-01T12:25:55.335Z,16.78
2017-10-01T12:27:04.176Z,16.76
2017-10-01T12:28:13.012Z,16.71
2017-10-01T12:29:21.849Z,16.7
2017-10-01T12:30:30.688Z,16.78
2017-10-01T12:31:39.577Z,16.82
2017-10-01T12:32:48.414Z,16.91
2017-10-01T12:33:57.617Z,17.04
2017-10-01T12:35:06.457Z,16.97
2017-10-01T12:36:15.291Z,17.08
2017-10-01T12:37:24.130Z,17.01
2017-10-01T12:38:32.969Z,17.16
2017-10-01T12:39:41.807Z,17.07
2017-10-01T12:40:50.648Z,17.07
2017-10-01T12:41:59.488Z,17.12
2017-10-01T12:43:08.476Z,17.3
2017-10-01T12:44:17.312Z,17.28
2017-10-01T12:45:26.150Z,17.41
2017-10-01T12:46:34.991Z,17.54
2017-10-01T12:47:43.835Z,17.46
2017-10-01T12:48:52.825Z,17.4
2017-10-01T12:50:01.672Z,17.31
2017-10-01T12:51:10.504Z,17.23
2017-10-01T12:52:19.358Z,17.31
2017-10-01T12:53:28.196Z,17.26
2017-10-01T12:54:37.186Z,17.23
2017-10-01T12:55:46.026Z,17.3
2017-10-01T12:56:54.868Z,17.3
2017-10-01T12:58:04.039Z,17.37
2017-10-01T12:59:12.878Z,17.36
2017-10-01T13:00:21.813Z,17.38
2017-10-01T13:01:30.649Z,17.31
2017-10-01T13:02:39.489Z,17.34
2017-10-01T13:03:48.658Z,17.3
2017-10-01T13:04:57.498Z,17.31
2017-10-01T13:06:06.386Z,17.26
2017-10-01T13:07:15.224Z,17.23
2017-10-01T13:08:24.062Z,17.28
2017-10-01T13:09:32.902Z,17.31
2017-10-01T13:10:41.744Z,17.28
2017-10-01T13:11:50.974Z,17.28
2017-10-01T13:12:59.812Z,17.37
2017-10-01T13:14:08.648Z,17.37
2017-10-01T13:15:17.487Z,17.49
2017-10-01T13:16:26.341Z,17.51
2017-10-01T13:17:35.264Z,17.62
2017-10-01T13:18:44.101Z,17.71
2017-10-01T13:19:52.939Z,17.77
2017-10-01T13:21:01.778Z,17.77
2017-10-01T13:22:10.617Z,17.87
2017-10-01T13:23:19.508Z,17.87
2017-10-01T13:24:28.349Z,17.89
2017-10-01T13:25:37.187Z,17.99
2017-10-01T13:26:46.034Z,17.97
2017-10-01T13:27:54.874Z,17.93
2017-10-01T13:29:03.961Z,18.07
2017-10-01T13:30:12.800Z,18.07
2017-10-01T13:31:21.638Z,18.12
2017-10-01T13:32:30.482Z,18.21
2017-10-01T13:33:39.652Z,18.23
2017-10-01T13:34:48.639Z,18.29
2017-10-01T13:35:57.477Z,18.15
2017-10-01T13:37:06.333Z,18.23
2017-10-01T13:38:15.155Z,18.18
2017-10-01T13:39:23.995Z,18.17
2017-10-01T13:40:32.999Z,18.3
2017-10-01T13:41:41.837Z,18.3
2017-10-01T13:42:50.677Z,18.41
2017-10-01T13:43:59.517Z,18.3
2017-10-01T13:45:08.355Z,18.23
2017-10-01T13:46:17.245Z,18.27
2017-10-01T13:47:26.085Z,18.18
2017-10-01T13:48:34.927Z,18.26
2017-10-01T13:49:43.764Z,18.15
2017-10-01T13:50:52.602Z,18.23
2017-10-01T13:52:01.594Z,18.32
2017-10-01T13:53:10.432Z,18.33
2017-10-01T13:54:19.605Z,18.33
2017-10-01T13:55:28.445Z,18.33
2017-10-01T13:56:37.284Z,18.32
2017-10-01T13:57:46.425Z,18.41
2017-10-01T13:58:55.267Z,18.48
2017-10-01T14:00:04.105Z,18.44
2017-10-01T14:01:12.944Z,18.41
2017-10-01T14:02:21.783Z,18.45
2017-10-01T14:03:31.103Z,18.45
2017-10-01T14:04:39.942Z,18.48
2017-10-01T14:05:48.784Z,18.44
2017-10-01T14:06:57.625Z,18.44
2017-10-01T14:08:06.465Z,18.45
2017-10-01T14:09:15.302Z,18.47
2017-10-01T14:10:24.142Z,18.55
2017-10-01T14:11:32.989Z,18.55
2017-10-01T14:12:41.831Z,18.55
2017-10-01T14:13:50.669Z,18.48
2017-10-01T14:15:00.139Z,18.36
2017-10-01T14:16:08.978Z,18.39
2017-10-01T14:17:17.817Z,18.33
2017-10-01T14:18:26.659Z,18.26
2017-10-01T14:19:35.500Z,18.18
2017-10-01T14:20:44.498Z,18.2
2017-10-01T14:21:53.342Z,18.14
2017-10-01T14:23:02.182Z,18.2
2017-10-01T14:24:11.020Z,18.2
2017-10-01T14:25:19.858Z,18.21
2017-10-01T14:26:28.846Z,18.14
2017-10-01T14:27:37.685Z,18.11
2017-10-01T14:28:46.523Z,18.08
2017-10-01T14:29:55.359Z,18.02
2017-10-01T14:31:04.197Z,18.08
2017-10-01T14:32:13.086Z,18.02
2017-10-01T14:33:21.926Z,17.95
2017-10-01T14:34:30.765Z,17.97
2017-10-01T14:35:39.602Z,18
2017-10-01T14:36:48.440Z,17.93
2017-10-01T14:37:57.326Z,17.92
2017-10-01T14:39:06.165Z,17.87
2017-10-01T14:40:15.004Z,17.86
2017-10-01T14:41:23.841Z,17.84
2017-10-01T14:42:32.680Z,17.92
2017-10-01T14:43:41.514Z,17.87
2017-10-01T14:44:50.353Z,17.89
2017-10-01T14:45:59.190Z,17.93
2017-10-01T14:47:08.029Z,17.92
2017-10-01T14:48:16.869Z,17.93
2017-10-01T14:49:25.860Z,17.79
2017-10-01T14:50:34.697Z,17.82
2017-10-01T14:51:43.535Z,17.77
2017-10-01T14:52:52.372Z,17.75
2017-10-01T14:54:01.212Z,17.66
2017-10-01T14:55:10.527Z,17.71